createdAt,value
2018-10-11T00:00:54.868Z,99.90
2018-10-11T00:03:23.442Z,99.90
2018-10-11T00:05:51.652Z,99.90
2018-10-11T00:08:19.859Z,99.90
2018-10-11T00:10:48.054Z,99.90
2018-10-11T00:13:16.214Z,99.90
2018-10-11T00:15:44.375Z,99.90
2018-10-11T00:18:12.535Z,99.90
2018-10-11T00:20:40.720Z,99.90
2018-10-11T00:23:09.037Z,99.90
2018-10-11T00:25:37.406Z,99.90
2018-10-11T00:28:05.723Z,99.90
2018-10-11T00:30:33.892Z,99.90
2018-10-11T00:33:02.049Z,99.90
2018-10-11T00:35:30.280Z,99.90
2018-10-11T00:37:58.454Z,99.90
2018-10-11T00:40:26.672Z,99.90
2018-10-11T00:42:54.936Z,99.90
2018-10-11T00:45:23.132Z,99.90
2018-10-11T00:47:51.285Z,99.90
2018-10-11T00:50:19.437Z,99.90
2018-10-11T00:52:47.595Z,99.90
2018-10-11T00:55:15.826Z,99.90
2018-10-11T00:57:43.987Z,99.90
2018-10-11T01:00:12.146Z,99.90
2018-10-11T01:02:40.340Z,99.90
2018-10-11T01:05:08.550Z,99.90
2018-10-11T01:07:36.744Z,99.90
2018-10-11T01:10:05.027Z,99.90
2018-10-11T01:12:33.155Z,99.90
2018-10-11T01:15:01.548Z,99.90
2018-10-11T01:17:29.743Z,99.90
2018-10-11T01:19:57.930Z,99.90
2018-10-11T01:22:26.111Z,99.90
2018-10-11T01:24:54.539Z,99.90
2018-10-11T01:27:22.718Z,99.90
2018-10-11T01:29:50.991Z,99.90
2018-10-11T01:32:19.095Z,99.90
2018-10-11T01:34:47.291Z,99.90
2018-10-11T01:37:15.463Z,99.90
2018-10-11T01:39:43.628Z,99.90
2018-10-11T01:42:11.875Z,99.90
2018-10-11T01:44:40.328Z,99.90
2018-10-11T01:47:08.670Z,99.90
2018-10-11T01:49:36.858Z,99.90
2018-10-11T01:52:05.046Z,99.90
2018-10-11T01:54:33.203Z,99.90
2018-10-11T01:57:01.402Z,99.90
2018-10-11T01:59:29.583Z,99.90
2018-10-11T02:01:57.775Z,99.90
2018-10-11T02:04:26.095Z,99.90
2018-10-11T02:06:54.274Z,99.90
2018-10-11T02:09:22.489Z,99.90
2018-10-11T02:11:50.903Z,99.90
2018-10-11T02:14:19.085Z,99.90
2018-10-11T02:16:47.274Z,99.90
2018-10-11T02:19:15.455Z,99.90
2018-10-11T02:21:43.614Z,99.90
2018-10-11T02:24:11.930Z,99.90
2018-10-11T02:26:40.116Z,99.90
2018-10-11T02:29:09.080Z,99.90
2018-10-11T02:31:37.257Z,99.90
2018-10-11T02:34:05.447Z,99.90
2018-10-11T02:36:33.655Z,99.90
2018-10-11T02:39:01.823Z,99.90
2018-10-11T02:41:30.048Z,99.90
2018-10-11T02:43:58.230Z,99.90
2018-10-11T02:46:26.382Z,99.90
2018-10-11T02:48:54.543Z,99.90
2018-10-11T02:51:22.683Z,99.90
2018-10-11T02:53:50.910Z,99.90
2018-10-11T02:56:19.986Z,99.90
2018-10-11T02:58:59.599Z,99.90
2018-10-11T03:01:27.803Z,99.90
2018-10-11T03:04:00.767Z,99.90
2018-10-11T03:06:28.923Z,99.90
2018-10-11T03:08:57.123Z,99.90
2018-10-11T03:11:25.280Z,99.90
2018-10-11T03:13:53.426Z,99.90
2018-10-11T03:16:21.627Z,99.90
2018-10-11T03:18:50.035Z,99.90
2018-10-11T03:21:18.218Z,99.90
2018-10-11T03:23:46.393Z,99.90
2018-10-11T03:26:14.551Z,99.90
2018-10-11T03:28:42.698Z,99.90
2018-10-11T03:31:10.870Z,99.90
2018-10-11T03:33:39.042Z,99.90
2018-10-11T03:36:07.247Z,99.90
2018-10-11T03:38:35.416Z,99.90
2018-10-11T03:41:03.589Z,99.90
2018-10-11T03:43:31.786Z,99.90
2018-10-11T03:45:59.965Z,99.90
2018-10-11T03:48:28.154Z,99.90
2018-10-11T03:50:56.334Z,99.90
2018-10-11T03:53:24.854Z,99.90
2018-10-11T03:55:53.050Z,99.90
2018-10-11T03:58:21.223Z,99.90
2018-10-11T04:00:49.393Z,99.90
2018-10-11T04:03:18.011Z,99.90
2018-10-11T04:05:46.215Z,99.90
2018-10-11T04:08:14.371Z,99.90
2018-10-11T04:10:42.580Z,99.90
2018-10-11T04:13:10.788Z,99.90
2018-10-11T04:15:39.046Z,99.90
2018-10-11T04:18:07.286Z,99.90
2018-10-11T04:20:35.544Z,99.90
2018-10-11T04:23:03.751Z,99.90
2018-10-11T04:25:31.943Z,99.90
2018-10-11T04:28:00.136Z,99.90
2018-10-11T04:30:28.358Z,99.90
2018-10-11T04:32:57.090Z,99.90
2018-10-11T04:35:25.643Z,99.90
2018-10-11T04:37:53.875Z,99.90
2018-10-11T04:40:22.032Z,99.90
2018-10-11T04:42:50.197Z,99.90
2018-10-11T04:45:18.346Z,99.90
2018-10-11T04:47:46.511Z,99.90
2018-10-11T04:50:14.654Z,99.90
2018-10-11T04:52:42.827Z,99.90
2018-10-11T04:55:10.979Z,99.90
2018-10-11T04:57:39.167Z,99.90
2018-10-11T05:00:07.854Z,99.90
2018-10-11T05:02:36.079Z,99.90
2018-10-11T05:05:04.302Z,99.90
2018-10-11T05:07:32.451Z,99.90
2018-10-11T05:10:00.633Z,99.90
2018-10-11T05:12:28.888Z,99.90
2018-10-11T05:14:57.064Z,99.90
2018-10-11T05:17:25.332Z,99.90
2018-10-11T05:19:53.723Z,99.90
2018-10-11T05:22:21.976Z,99.90
2018-10-11T05:24:50.125Z,99.90
2018-10-11T05:27:18.291Z,99.90
2018-10-11T05:29:46.453Z,99.90
2018-10-11T05:32:14.745Z,99.90
2018-10-11T05:34:42.894Z,99.90
2018-10-11T05:37:11.177Z,99.90
2018-10-11T05:39:39.419Z,99.90
2018-10-11T05:42:07.635Z,99.90
2018-10-11T05:44:35.858Z,99.90
2018-10-11T05:47:03.987Z,99.90
2018-10-11T05:49:32.210Z,99.90
2018-10-11T05:52:00.648Z,99.90
2018-10-11T05:54:28.905Z,99.90
2018-10-11T05:56:57.087Z,99.90
2018-10-11T05:59:25.236Z,99.90
2018-10-11T06:01:53.567Z,99.90
2018-10-11T06:04:21.877Z,99.90
2018-10-11T06:06:49.992Z,99.90
2018-10-11T06:09:18.388Z,99.90
2018-10-11T06:11:46.825Z,99.90
2018-10-11T06:14:15.402Z,99.90
2018-10-11T06:16:43.641Z,99.90
2018-10-11T06:19:13.140Z,99.90
2018-10-11T06:21:41.347Z,99.90
2018-10-11T06:24:09.530Z,99.90
2018-10-11T06:26:37.706Z,99.90
2018-10-11T06:29:06.127Z,99.90
2018-10-11T06:31:34.327Z,99.90
2018-10-11T06:34:02.471Z,99.90
2018-10-11T06:36:31.106Z,99.90
2018-10-11T06:38:59.768Z,99.90
2018-10-11T06:41:28.182Z,99.90
2018-10-11T06:43:56.805Z,99.90
2018-10-11T06:46:24.985Z,99.90
2018-10-11T06:48:53.343Z,99.90
2018-10-11T06:51:21.535Z,99.90
2018-10-11T06:53:50.535Z,99.90
2018-10-11T06:56:18.749Z,99.90
2018-10-11T06:58:46.913Z,99.90
2018-10-11T07:01:15.074Z,99.90
2018-10-11T07:03:43.238Z,99.90
2018-10-11T07:06:12.101Z,99.90
2018-10-11T07:11:53.697Z,99.90
2018-10-11T07:14:21.882Z,99.90
2018-10-11T07:16:50.099Z,99.90
2018-10-11T07:19:18.292Z,99.90
2018-10-11T07:21:46.480Z,99.90
2018-10-11T07:24:14.662Z,99.90
2018-10-11T07:26:42.839Z,99.90
2018-10-11T07:29:11.007Z,99.90
2018-10-11T07:31:39.210Z,99.90
2018-10-11T07:34:07.442Z,99.90
2018-10-11T07:36:35.640Z,99.90
2018-10-11T07:39:05.551Z,99.90
2018-10-11T07:41:33.762Z,99.90
2018-10-11T07:44:01.903Z,99.90
2018-10-11T07:46:30.047Z,99.90
2018-10-11T07:48:58.229Z,99.90
2018-10-11T07:51:26.406Z,99.90
2018-10-11T07:53:59.829Z,99.90
2018-10-11T07:56:28.108Z,99.90
2018-10-11T07:58:56.300Z,99.90
2018-10-11T08:01:24.622Z,99.90
2018-10-11T08:03:52.711Z,99.90
2018-10-11T08:06:21.743Z,99.90
2018-10-11T08:08:49.959Z,99.90
2018-10-11T08:11:25.792Z,99.90
2018-10-11T08:13:54.238Z,99.90
2018-10-11T08:16:22.806Z,99.90
2018-10-11T08:18:51.337Z,99.90
2018-10-11T08:21:19.446Z,99.90
2018-10-11T08:23:47.691Z,99.90
2018-10-11T08:26:16.263Z,99.90
2018-10-11T08:28:44.107Z,99.90
2018-10-11T08:31:12.575Z,99.90
2018-10-11T08:33:40.735Z,99.90
2018-10-11T08:36:09.158Z,99.90
2018-10-11T08:38:37.567Z,99.90
2018-10-11T08:41:05.707Z,99.90
2018-10-11T08:43:33.972Z,99.90
2018-10-11T08:46:02.020Z,99.90
2018-10-11T08:48:30.338Z,99.90
2018-10-11T08:50:58.687Z,99.90
2018-10-11T08:53:26.866Z,99.90
2018-10-11T08:55:55.149Z,99.90
2018-10-11T08:58:23.329Z,99.90
2018-10-11T09:00:51.476Z,99.90
2018-10-11T09:03:19.740Z,99.90
2018-10-11T09:05:47.899Z,99.90
2018-10-11T09:08:16.091Z,99.90
2018-10-11T09:10:44.348Z,99.90
2018-10-11T09:13:12.534Z,99.90
2018-10-11T09:15:40.745Z,99.90
2018-10-11T09:18:08.978Z,99.90
2018-10-11T09:20:37.174Z,99.90
2018-10-11T09:23:05.411Z,99.90
2018-10-11T09:25:33.630Z,99.90
2018-10-11T09:28:01.854Z,99.90
2018-10-11T09:30:30.111Z,99.90
2018-10-11T09:32:58.242Z,99.90
2018-10-11T09:35:26.439Z,99.90
2018-10-11T09:37:54.619Z,99.90
2018-10-11T09:40:22.808Z,99.90
2018-10-11T09:42:50.960Z,99.90
2018-10-11T09:45:19.220Z,99.90
2018-10-11T09:47:47.346Z,99.90
2018-10-11T09:50:15.583Z,99.90
2018-10-11T09:52:43.918Z,99.90
2018-10-11T09:55:12.312Z,99.90
2018-10-11T09:57:40.558Z,99.90
2018-10-11T10:00:16.629Z,99.90
2018-10-11T10:02:45.925Z,99.90
2018-10-11T10:05:14.083Z,99.90
2018-10-11T10:07:42.278Z,99.90
2018-10-11T10:10:10.463Z,99.90
2018-10-11T10:12:38.704Z,99.90
2018-10-11T10:15:06.931Z,99.90
2018-10-11T10:17:35.578Z,99.90
2018-10-11T10:20:03.771Z,99.90
2018-10-11T10:22:31.961Z,99.90
2018-10-11T10:25:00.135Z,99.90
2018-10-11T10:27:28.351Z,99.90
2018-10-11T10:29:56.540Z,99.90
2018-10-11T10:32:24.724Z,99.90
2018-10-11T10:34:53.018Z,99.90
2018-10-11T10:37:21.182Z,99.90
2018-10-11T10:39:49.404Z,99.90
2018-10-11T10:42:17.594Z,99.90
2018-10-11T10:44:45.903Z,99.90
2018-10-11T10:47:14.047Z,99.90
2018-10-11T10:49:42.197Z,99.90
2018-10-11T10:52:10.351Z,99.90
2018-10-11T10:54:38.547Z,99.90
2018-10-11T10:57:06.950Z,99.90
2018-10-11T10:59:36.095Z,99.40
2018-10-11T11:02:04.285Z,99.60
2018-10-11T11:04:32.435Z,99.10
2018-10-11T11:07:00.654Z,98.90
2018-10-11T11:09:28.896Z,99.90
2018-10-11T11:11:57.174Z,99.80
2018-10-11T11:14:25.422Z,98.90
2018-10-11T11:16:53.626Z,98.30
2018-10-11T11:19:21.783Z,97.70
2018-10-11T11:21:51.235Z,97.80
2018-10-11T11:24:19.390Z,99.20
2018-10-11T11:26:47.634Z,98.10
2018-10-11T11:29:15.882Z,97.60
2018-10-11T11:31:44.072Z,97.60
2018-10-11T11:34:12.227Z,97.70
2018-10-11T11:36:40.489Z,98.00
2018-10-11T11:39:57.049Z,97.60
2018-10-11T11:42:25.941Z,97.30
2018-10-11T11:44:54.126Z,97.10
2018-10-11T11:47:22.339Z,96.80
2018-10-11T11:49:50.602Z,95.20
2018-10-11T11:52:18.802Z,95.90
2018-10-11T11:54:46.983Z,95.90
2018-10-11T11:57:15.142Z,95.90
2018-10-11T11:59:43.335Z,96.50
2018-10-11T12:02:11.651Z,95.50
2018-10-11T12:04:39.839Z,95.50
2018-10-11T12:07:08.169Z,96.10
2018-10-11T12:09:36.315Z,96.90
2018-10-11T12:12:04.554Z,97.00
2018-10-11T12:14:32.761Z,95.80
2018-10-11T12:17:01.049Z,95.70
2018-10-11T12:19:29.208Z,96.10
2018-10-11T12:21:57.459Z,95.90
2018-10-11T12:24:25.676Z,95.50
2018-10-11T12:26:53.854Z,95.30
2018-10-11T12:29:22.026Z,95.00
2018-10-11T12:31:50.212Z,95.10
2018-10-11T12:34:18.370Z,95.30
2018-10-11T12:36:46.598Z,95.90
2018-10-11T12:39:14.778Z,96.50
2018-10-11T12:41:42.974Z,96.40
2018-10-11T12:44:11.256Z,95.40
2018-10-11T12:46:41.135Z,95.40
2018-10-11T12:49:08.900Z,95.10
2018-10-11T12:51:37.061Z,95.60
2018-10-11T12:54:05.226Z,95.50
2018-10-11T12:56:33.493Z,95.50
2018-10-11T12:59:01.741Z,95.30
2018-10-11T13:01:29.916Z,95.30
2018-10-11T13:04:02.822Z,94.70
2018-10-11T13:06:31.870Z,94.60
2018-10-11T13:09:00.655Z,95.30
2018-10-11T13:11:29.038Z,94.80
2018-10-11T13:13:57.273Z,94.80
2018-10-11T13:16:25.562Z,94.80
2018-10-11T13:18:53.819Z,94.00
2018-10-11T13:21:21.958Z,94.40
2018-10-11T13:23:50.968Z,94.90
2018-10-11T13:26:19.206Z,94.00
2018-10-11T13:28:47.551Z,94.80
2018-10-11T13:31:15.744Z,93.60
2018-10-11T13:33:43.962Z,94.30
2018-10-11T13:36:12.254Z,95.10
2018-10-11T13:38:40.571Z,94.00
2018-10-11T13:41:09.060Z,94.10
2018-10-11T13:43:37.214Z,95.30
2018-10-11T13:46:05.466Z,95.20
2018-10-11T13:48:35.779Z,94.40
2018-10-11T13:51:04.038Z,93.60
2018-10-11T13:53:32.227Z,93.90
2018-10-11T13:56:00.567Z,94.40
2018-10-11T13:58:28.786Z,93.40
2018-10-11T14:00:56.996Z,93.00
2018-10-11T14:03:25.150Z,93.70
2018-10-11T14:05:53.303Z,93.90
2018-10-11T14:08:21.602Z,94.80
2018-10-11T14:10:49.876Z,94.60
2018-10-11T14:13:20.485Z,95.20
2018-10-11T14:15:46.386Z,95.10
2018-10-11T14:18:14.975Z,94.90
2018-10-11T14:20:43.123Z,93.90
2018-10-11T14:23:11.392Z,93.50
2018-10-11T14:25:39.803Z,94.00
2018-10-11T14:28:08.025Z,93.60
2018-10-11T14:30:36.383Z,93.50
2018-10-11T14:33:04.586Z,93.10
2018-10-11T14:35:32.743Z,93.40
2018-10-11T14:38:00.998Z,93.30
2018-10-11T14:40:29.460Z,92.70
2018-10-11T14:42:57.663Z,93.00
2018-10-11T14:45:25.854Z,93.00
2018-10-11T14:47:54.207Z,92.90
2018-10-11T14:50:22.480Z,93.60
2018-10-11T14:52:50.829Z,93.80
2018-10-11T14:55:19.032Z,94.30
2018-10-11T14:57:47.234Z,93.40
2018-10-11T15:00:15.479Z,93.30
2018-10-11T15:02:43.764Z,92.80
2018-10-11T15:05:12.028Z,93.20
2018-10-11T15:07:40.182Z,93.60
2018-10-11T15:10:08.415Z,93.60
2018-10-11T15:12:36.675Z,94.50
2018-10-11T15:15:05.174Z,94.50
2018-10-11T15:17:33.522Z,93.70
2018-10-11T15:20:01.782Z,93.60
2018-10-11T15:22:30.029Z,93.60
2018-10-11T15:24:58.228Z,94.00
2018-10-11T15:27:26.462Z,94.80
2018-10-11T15:29:54.702Z,94.70
2018-10-11T15:32:22.892Z,94.70
2018-10-11T15:34:51.187Z,94.60
2018-10-11T15:37:19.446Z,94.30
2018-10-11T15:39:47.691Z,94.80
2018-10-11T15:42:16.032Z,95.60
2018-10-11T15:47:18.632Z,96.10
2018-10-11T16:23:21.394Z,97.60
2018-10-11T16:25:49.728Z,97.30
2018-10-11T16:28:18.059Z,97.40
2018-10-11T16:30:46.386Z,97.70
2018-10-11T16:33:14.564Z,97.90
2018-10-11T16:35:42.808Z,98.10
2018-10-11T16:38:11.112Z,98.20
2018-10-11T16:40:40.534Z,98.40
2018-10-11T16:43:08.769Z,98.40
2018-10-11T16:45:37.108Z,98.10
2018-10-11T16:48:05.411Z,98.00
2018-10-11T16:50:33.785Z,98.20
2018-10-11T16:53:02.290Z,98.30
2018-10-11T16:55:30.540Z,98.40
2018-10-11T16:57:58.773Z,98.40
2018-10-11T17:00:27.204Z,98.70
2018-10-11T17:02:55.468Z,98.70
2018-10-11T17:05:23.703Z,98.90
2018-10-11T17:07:52.002Z,98.70
2018-10-11T17:10:20.143Z,98.80
2018-10-11T17:12:48.375Z,98.80
2018-10-11T17:15:16.615Z,98.80
2018-10-11T17:17:44.875Z,98.80
2018-10-11T17:20:13.399Z,98.80
2018-10-11T17:22:41.583Z,98.60
2018-10-11T17:25:09.828Z,98.70
2018-10-11T17:27:38.033Z,98.60
2018-10-11T17:30:06.556Z,99.10
2018-10-11T17:32:34.770Z,98.80
2018-10-11T17:35:03.091Z,98.80
2018-10-11T17:37:31.220Z,98.70
2018-10-11T17:39:59.358Z,98.70
2018-10-11T17:42:27.523Z,98.50
2018-10-11T17:44:55.718Z,98.40
2018-10-11T17:47:23.926Z,98.60
2018-10-11T17:49:52.183Z,98.60
2018-10-11T17:52:20.399Z,98.50
2018-10-11T17:54:51.574Z,98.50
2018-10-11T17:57:23.035Z,98.40
2018-10-11T17:59:51.199Z,98.40
2018-10-11T18:02:20.497Z,98.40
2018-10-11T18:04:48.809Z,98.20
2018-10-11T18:07:17.062Z,98.10
2018-10-11T18:09:45.255Z,97.70
2018-10-11T18:12:13.487Z,97.50
2018-10-11T18:14:41.687Z,97.50
2018-10-11T18:17:09.855Z,97.20
2018-10-11T18:19:38.025Z,97.30
2018-10-11T18:22:07.040Z,96.70
2018-10-11T18:24:35.207Z,96.60
2018-10-11T18:27:03.374Z,96.10
2018-10-11T18:29:31.576Z,96.00
2018-10-11T18:31:59.756Z,96.60
2018-10-11T18:34:27.899Z,96.20
2018-10-11T18:36:56.063Z,96.20
2018-10-11T18:39:24.268Z,96.20
2018-10-11T18:41:52.511Z,96.40
2018-10-11T18:44:20.714Z,96.50
2018-10-11T18:46:48.903Z,96.50
2018-10-11T18:49:17.117Z,96.60
2018-10-11T18:51:45.479Z,96.60
2018-10-11T18:54:13.728Z,96.70
2018-10-11T18:56:41.898Z,96.80
2018-10-11T18:59:10.082Z,96.90
2018-10-11T19:01:38.262Z,96.90
2018-10-11T19:04:06.443Z,96.90
2018-10-11T19:06:34.677Z,96.70
2018-10-11T19:09:03.176Z,96.10
2018-10-11T19:11:31.333Z,96.00
2018-10-11T19:13:59.482Z,96.10
2018-10-11T19:16:27.723Z,96.40
2018-10-11T19:18:55.965Z,96.40
2018-10-11T19:21:24.139Z,96.40
2018-10-11T19:23:52.293Z,96.50
2018-10-11T19:26:20.475Z,96.70
2018-10-11T19:28:48.639Z,96.60
2018-10-11T19:31:16.842Z,96.60
2018-10-11T19:33:45.030Z,96.70
2018-10-11T19:36:13.269Z,96.70
2018-10-11T19:38:41.477Z,96.70
2018-10-11T19:41:09.639Z,97.30
2018-10-11T19:43:37.894Z,97.00
2018-10-11T19:46:06.035Z,97.00
2018-10-11T19:48:34.316Z,97.00
2018-10-11T19:51:02.467Z,97.00
2018-10-11T19:53:30.615Z,97.00
2018-10-11T19:55:58.813Z,97.00
2018-10-11T19:58:27.019Z,97.10
2018-10-11T20:00:55.188Z,97.20
2018-10-11T20:03:23.333Z,97.70
2018-10-11T20:05:51.495Z,97.40
2018-10-11T20:08:19.633Z,97.50
2018-10-11T20:10:47.776Z,97.60
2018-10-11T20:13:15.975Z,97.60
2018-10-11T20:15:44.194Z,98.00
2018-10-11T20:18:12.354Z,97.70
2018-10-11T20:20:40.588Z,97.60
2018-10-11T20:23:08.876Z,97.80
2018-10-11T20:25:37.014Z,97.80
2018-10-11T20:28:05.175Z,97.90
2018-10-11T20:30:33.346Z,97.80
2018-10-11T20:33:01.471Z,97.70
2018-10-11T20:35:29.614Z,97.90
2018-10-11T20:37:57.742Z,97.90
2018-10-11T20:40:25.890Z,98.00
2018-10-11T20:42:54.022Z,98.00
2018-10-11T20:45:22.219Z,98.00
2018-10-11T20:47:50.376Z,98.10
2018-10-11T20:50:18.524Z,97.90
2018-10-11T20:52:46.697Z,97.90
2018-10-11T20:55:14.867Z,98.10
2018-10-11T20:57:43.060Z,98.20
2018-10-11T21:00:11.230Z,98.30
2018-10-11T21:02:39.430Z,98.30
2018-10-11T21:05:07.628Z,98.20
2018-10-11T21:07:35.785Z,98.10
2018-10-11T21:10:03.945Z,98.20
2018-10-11T21:12:32.092Z,97.90
2018-10-11T21:15:00.240Z,97.50
2018-10-11T21:17:28.510Z,97.50
2018-10-11T21:19:56.726Z,97.50
2018-10-11T21:22:24.869Z,97.20
2018-10-11T21:24:53.333Z,97.30
2018-10-11T21:27:21.470Z,97.30
2018-10-11T21:29:49.615Z,97.50
2018-10-11T21:32:17.791Z,97.50
2018-10-11T21:34:45.982Z,97.70
2018-10-11T21:37:14.353Z,97.80
2018-10-11T21:39:42.536Z,97.80
2018-10-11T21:42:10.698Z,97.70
2018-10-11T21:44:39.141Z,97.30
2018-10-11T21:47:07.482Z,97.40
2018-10-11T21:49:35.660Z,97.60
2018-10-11T21:52:03.789Z,97.40
2018-10-11T21:54:32.004Z,97.60
2018-10-11T21:57:00.235Z,97.70
2018-10-11T21:59:28.457Z,97.80
2018-10-11T22:01:56.674Z,97.80
2018-10-11T22:04:24.909Z,97.80
2018-10-11T22:06:53.065Z,97.80
2018-10-11T22:09:21.230Z,97.80
2018-10-11T22:11:49.427Z,97.60
2018-10-11T22:14:17.571Z,97.50
2018-10-11T22:16:45.756Z,97.40
2018-10-11T22:19:13.930Z,97.70
2018-10-11T22:21:42.083Z,97.80
2018-10-11T22:24:10.282Z,97.10
2018-10-11T22:26:38.494Z,97.70
2018-10-11T22:29:06.759Z,97.20
2018-10-11T22:31:34.903Z,97.70
2018-10-11T22:34:03.044Z,97.20
2018-10-11T22:36:31.266Z,97.00
2018-10-11T22:38:59.399Z,96.90
2018-10-11T22:41:27.574Z,96.80
2018-10-11T22:43:55.732Z,96.80
2018-10-11T22:46:23.946Z,96.60
2018-10-11T22:48:52.115Z,97.00
2018-10-11T22:51:20.275Z,96.60
2018-10-11T22:53:48.432Z,97.00
2018-10-11T22:58:39.645Z,97.30
2018-10-11T23:01:07.946Z,97.30
2018-10-11T23:03:36.802Z,97.30
2018-10-11T23:06:05.522Z,97.20
2018-10-11T23:08:34.516Z,97.30
2018-10-11T23:11:02.805Z,97.20
2018-10-11T23:13:31.223Z,97.10
2018-10-11T23:15:59.465Z,97.10
2018-10-11T23:18:27.760Z,97.00
2018-10-11T23:20:56.084Z,97.20
2018-10-11T23:23:24.415Z,97.00
2018-10-11T23:25:52.785Z,97.60
2018-10-11T23:28:21.047Z,97.30
2018-10-11T23:30:49.317Z,96.90
2018-10-11T23:33:17.653Z,96.80
2018-10-11T23:35:45.982Z,96.80
2018-10-11T23:38:14.313Z,96.40
2018-10-11T23:40:42.632Z,96.60
2018-10-11T23:43:11.825Z,96.40
2018-10-11T23:45:40.101Z,96.40
2018-10-11T23:48:08.440Z,96.50
2018-10-11T23:50:36.809Z,96.40
2018-10-11T23:53:05.150Z,96.40
2018-10-11T23:55:33.461Z,96.20
2018-10-11T23:58:02.426Z,96.10
